sensor_id;sensor_type;location;lat;lon;timestamp;P1;durP1;ratioP1;P2;durP2;ratioP2
1412;SDS011;701;52.526;13.408;2023-02-25T00:01:05;13.10;;;2.53;;
1412;SDS011;701;52.526;13.408;2023-02-25T00:03:33;13.43;;;2.60;;
1412;SDS011;701;52.526;13.408;2023-02-25T00:06:00;13.00;;;2.40;;
1412;SDS011;701;52.526;13.408;2023-02-25T00:08:27;11.73;;;2.40;;
1412;SDS011;701;52.526;13.408;2023-02-25T00:10:59;7.53;;;2.10;;
1412;SDS011;701;52.526;13.408;2023-02-25T00:13:27;14.07;;;2.00;;
1412;SDS011;701;52.526;13.408;2023-02-25T00:15:54;14.55;;;2.17;;
1412;SDS011;701;52.526;13.408;2023-02-25T00:18:25;10.77;;;1.95;;
1412;SDS011;701;52.526;13.408;2023-02-25T00:20:52;13.45;;;2.50;;
1412;SDS011;701;52.526;13.408;2023-02-25T00:23:18;15.32;;;2.78;;
1412;SDS011;701;52.526;13.408;2023-02-25T00:25:44;11.37;;;2.37;;
1412;SDS011;701;52.526;13.408;2023-02-25T00:28:11;6.38;;;1.00;;
1412;SDS011;701;52.526;13.408;2023-02-25T00:30:37;4.10;;;0.95;;
1412;SDS011;701;52.526;13.408;2023-02-25T00:33:03;5.80;;;0.80;;
1412;SDS011;701;52.526;13.408;2023-02-25T00:35:33;4.32;;;0.90;;
1412;SDS011;701;52.526;13.408;2023-02-25T00:38:03;4.50;;;0.63;;
1412;SDS011;701;52.526;13.408;2023-02-25T00:40:31;4.82;;;1.13;;
1412;SDS011;701;52.526;13.408;2023-02-25T00:42:57;4.60;;;1.40;;
1412;SDS011;701;52.526;13.408;2023-02-25T00:45:23;7.45;;;3.30;;
1412;SDS011;701;52.526;13.408;2023-02-25T00:47:49;8.00;;;4.13;;
1412;SDS011;701;52.526;13.408;2023-02-25T00:50:14;9.63;;;4.00;;
1412;SDS011;701;52.526;13.408;2023-02-25T00:52:40;11.77;;;6.47;;
1412;SDS011;701;52.526;13.408;2023-02-25T00:55:06;13.88;;;6.50;;
1412;SDS011;701;52.526;13.408;2023-02-25T00:57:32;13.73;;;5.67;;
1412;SDS011;701;52.526;13.408;2023-02-25T00:59:58;10.30;;;4.43;;
1412;SDS011;701;52.526;13.408;2023-02-25T01:02:23;13.07;;;6.43;;
1412;SDS011;701;52.526;13.408;2023-02-25T01:04:49;15.73;;;7.03;;
1412;SDS011;701;52.526;13.408;2023-02-25T01:07:15;19.40;;;6.73;;
1412;SDS011;701;52.526;13.408;2023-02-25T01:09:41;14.85;;;6.80;;
1412;SDS011;701;52.526;13.408;2023-02-25T01:12:07;13.53;;;7.37;;
1412;SDS011;701;52.526;13.408;2023-02-25T01:14:33;15.65;;;7.72;;
1412;SDS011;701;52.526;13.408;2023-02-25T01:16:58;10.82;;;5.65;;
1412;SDS011;701;52.526;13.408;2023-02-25T01:19:27;10.18;;;3.47;;
1412;SDS011;701;52.526;13.408;2023-02-25T01:21:55;8.00;;;1.90;;
1412;SDS011;701;52.526;13.408;2023-02-25T01:24:23;8.90;;;2.17;;
1412;SDS011;701;52.526;13.408;2023-02-25T01:26:54;10.65;;;1.85;;
1412;SDS011;701;52.526;13.408;2023-02-25T01:29:23;11.50;;;1.92;;
1412;SDS011;701;52.526;13.408;2023-02-25T01:31:59;10.35;;;2.33;;
1412;SDS011;701;52.526;13.408;2023-02-25T01:34:26;6.97;;;1.50;;
1412;SDS011;701;52.526;13.408;2023-02-25T01:36:54;9.70;;;1.92;;
1412;SDS011;701;52.526;13.408;2023-02-25T01:39:20;9.30;;;2.15;;
1412;SDS011;701;52.526;13.408;2023-02-25T01:41:50;9.63;;;2.22;;
1412;SDS011;701;52.526;13.408;2023-02-25T01:46:45;10.63;;;2.77;;
1412;SDS011;701;52.526;13.408;2023-02-25T01:49:24;8.15;;;2.80;;
1412;SDS011;701;52.526;13.408;2023-02-25T01:52:05;9.65;;;3.75;;
1412;SDS011;701;52.526;13.408;2023-02-25T01:54:31;14.77;;;4.40;;
1412;SDS011;701;52.526;13.408;2023-02-25T01:56:59;13.60;;;3.63;;
1412;SDS011;701;52.526;13.408;2023-02-25T01:59:28;11.20;;;3.90;;
1412;SDS011;701;52.526;13.408;2023-02-25T02:01:54;8.90;;;2.90;;
1412;SDS011;701;52.526;13.408;2023-02-25T02:04:21;7.22;;;2.72;;
1412;SDS011;701;52.526;13.408;2023-02-25T02:06:48;12.35;;;2.65;;
1412;SDS011;701;52.526;13.408;2023-02-25T02:09:17;7.28;;;2.65;;
1412;SDS011;701;52.526;13.408;2023-02-25T02:11:45;10.07;;;2.50;;
1412;SDS011;701;52.526;13.408;2023-02-25T02:14:12;12.80;;;2.90;;
1412;SDS011;701;52.526;13.408;2023-02-25T02:30:45;11.80;;;3.90;;
1412;SDS011;701;52.526;13.408;2023-02-25T02:39:39;11.23;;;3.95;;
1412;SDS011;701;52.526;13.408;2023-02-25T02:42:39;9.63;;;4.72;;
1412;SDS011;701;52.526;13.408;2023-02-25T02:48:21;8.93;;;4.03;;
1412;SDS011;701;52.526;13.408;2023-02-25T02:50:59;8.90;;;3.38;;
1412;SDS011;701;52.526;13.408;2023-02-25T02:53:31;8.68;;;3.30;;
1412;SDS011;701;52.526;13.408;2023-02-25T02:56:11;9.70;;;3.70;;
1412;SDS011;701;52.526;13.408;2023-02-25T02:58:40;8.63;;;4.35;;
1412;SDS011;701;52.526;13.408;2023-02-25T03:01:11;7.10;;;3.67;;
1412;SDS011;701;52.526;13.408;2023-02-25T03:03:45;7.68;;;3.60;;
1412;SDS011;701;52.526;13.408;2023-02-25T03:06:19;7.00;;;3.50;;
1412;SDS011;701;52.526;13.408;2023-02-25T03:08:53;7.00;;;3.40;;
1412;SDS011;701;52.526;13.408;2023-02-25T03:11:24;4.80;;;2.00;;
1412;SDS011;701;52.526;13.408;2023-02-25T03:13:51;6.30;;;2.60;;
1412;SDS011;701;52.526;13.408;2023-02-25T03:16:22;7.93;;;2.00;;
1412;SDS011;701;52.526;13.408;2023-02-25T03:19:22;5.88;;;1.75;;
1412;SDS011;701;52.526;13.408;2023-02-25T03:21:57;4.63;;;1.60;;
1412;SDS011;701;52.526;13.408;2023-02-25T03:24:35;6.28;;;1.75;;
1412;SDS011;701;52.526;13.408;2023-02-25T03:27:41;6.77;;;1.87;;
1412;SDS011;701;52.526;13.408;2023-02-25T03:32:39;6.30;;;2.55;;
1412;SDS011;701;52.526;13.408;2023-02-25T03:35:11;4.80;;;1.80;;
1412;SDS011;701;52.526;13.408;2023-02-25T03:37:38;4.85;;;1.50;;
1412;SDS011;701;52.526;13.408;2023-02-25T03:40:08;5.67;;;1.47;;
1412;SDS011;701;52.526;13.408;2023-02-25T03:42:40;5.25;;;1.75;;
1412;SDS011;701;52.526;13.408;2023-02-25T03:45:14;6.10;;;2.00;;
1412;SDS011;701;52.526;13.408;2023-02-25T03:47:40;4.93;;;2.38;;
1412;SDS011;701;52.526;13.408;2023-02-25T03:50:09;5.63;;;2.60;;
1412;SDS011;701;52.526;13.408;2023-02-25T03:52:52;6.13;;;2.83;;
1412;SDS011;701;52.526;13.408;2023-02-25T03:55:45;4.65;;;2.08;;
1412;SDS011;701;52.526;13.408;2023-02-25T03:58:14;4.15;;;1.60;;
1412;SDS011;701;52.526;13.408;2023-02-25T04:00:40;4.65;;;1.77;;
1412;SDS011;701;52.526;13.408;2023-02-25T04:03:08;5.03;;;2.50;;
1412;SDS011;701;52.526;13.408;2023-02-25T04:05:34;4.70;;;1.70;;
1412;SDS011;701;52.526;13.408;2023-02-25T04:08:02;4.45;;;1.50;;
1412;SDS011;701;52.526;13.408;2023-02-25T04:10:31;4.82;;;1.70;;
1412;SDS011;701;52.526;13.408;2023-02-25T04:12:58;4.57;;;1.50;;
1412;SDS011;701;52.526;13.408;2023-02-25T04:15:24;4.27;;;1.10;;
1412;SDS011;701;52.526;13.408;2023-02-25T04:17:51;3.90;;;1.20;;
1412;SDS011;701;52.526;13.408;2023-02-25T04:20:18;3.50;;;1.10;;
1412;SDS011;701;52.526;13.408;2023-02-25T04:22:44;3.70;;;1.20;;
1412;SDS011;701;52.526;13.408;2023-02-25T04:25:10;3.50;;;0.90;;
1412;SDS011;701;52.526;13.408;2023-02-25T04:27:36;4.07;;;1.00;;
1412;SDS011;701;52.526;13.408;2023-02-25T04:30:02;3.40;;;1.00;;
1412;SDS011;701;52.526;13.408;2023-02-25T04:32:29;4.10;;;1.10;;
1412;SDS011;701;52.526;13.408;2023-02-25T04:34:55;4.65;;;0.93;;
1412;SDS011;701;52.526;13.408;2023-02-25T04:37:27;4.38;;;1.35;;
1412;SDS011;701;52.526;13.408;2023-02-25T04:39:53;3.20;;;0.90;;
1412;SDS011;701;52.526;13.408;2023-02-25T04:42:19;3.43;;;1.10;;
1412;SDS011;701;52.526;13.408;2023-02-25T04:44:44;3.50;;;0.90;;
1412;SDS011;701;52.526;13.408;2023-02-25T04:47:10;3.53;;;1.00;;
1412;SDS011;701;52.526;13.408;2023-02-25T04:49:36;3.60;;;0.90;;
1412;SDS011;701;52.526;13.408;2023-02-25T04:52:12;3.92;;;1.00;;
1412;SDS011;701;52.526;13.408;2023-02-25T04:54:39;4.17;;;1.10;;
1412;SDS011;701;52.526;13.408;2023-02-25T04:57:09;3.33;;;1.00;;
1412;SDS011;701;52.526;13.408;2023-02-25T04:59:35;4.15;;;1.02;;
1412;SDS011;701;52.526;13.408;2023-02-25T05:02:01;3.40;;;1.00;;
1412;SDS011;701;52.526;13.408;2023-02-25T05:04:27;3.80;;;1.00;;
1412;SDS011;701;52.526;13.408;2023-02-25T05:06:53;3.30;;;0.77;;
1412;SDS011;701;52.526;13.408;2023-02-25T05:09:19;4.07;;;1.13;;
1412;SDS011;701;52.526;13.408;2023-02-25T05:11:45;3.60;;;1.00;;
1412;SDS011;701;52.526;13.408;2023-02-25T05:14:11;3.90;;;1.10;;
1412;SDS011;701;52.526;13.408;2023-02-25T05:16:37;3.65;;;1.10;;
1412;SDS011;701;52.526;13.408;2023-02-25T05:19:03;4.73;;;1.10;;
1412;SDS011;701;52.526;13.408;2023-02-25T05:21:28;3.30;;;0.90;;
1412;SDS011;701;52.526;13.408;2023-02-25T05:23:55;4.50;;;1.23;;
1412;SDS011;701;52.526;13.408;2023-02-25T05:26:21;4.50;;;1.10;;
1412;SDS011;701;52.526;13.408;2023-02-25T05:28:52;3.70;;;1.17;;
1412;SDS011;701;52.526;13.408;2023-02-25T05:31:20;4.20;;;1.00;;
1412;SDS011;701;52.526;13.408;2023-02-25T05:33:47;4.13;;;1.00;;
1412;SDS011;701;52.526;13.408;2023-02-25T05:36:13;3.83;;;1.00;;
1412;SDS011;701;52.526;13.408;2023-02-25T05:38:40;4.15;;;1.10;;
1412;SDS011;701;52.526;13.408;2023-02-25T05:41:07;5.20;;;1.40;;
1412;SDS011;701;52.526;13.408;2023-02-25T05:43:34;4.82;;;1.13;;
1412;SDS011;701;52.526;13.408;2023-02-25T05:46:01;4.78;;;1.40;;
1412;SDS011;701;52.526;13.408;2023-02-25T05:48:29;3.50;;;1.10;;
1412;SDS011;701;52.526;13.408;2023-02-25T05:51:00;4.45;;;1.15;;
1412;SDS011;701;52.526;13.408;2023-02-25T05:53:28;4.60;;;0.93;;
1412;SDS011;701;52.526;13.408;2023-02-25T05:55:54;4.07;;;1.30;;
1412;SDS011;701;52.526;13.408;2023-02-25T05:58:20;5.57;;;1.13;;
1412;SDS011;701;52.526;13.408;2023-02-25T06:00:46;5.97;;;1.03;;
1412;SDS011;701;52.526;13.408;2023-02-25T06:03:12;3.83;;;1.00;;
1412;SDS011;701;52.526;13.408;2023-02-25T06:05:41;3.63;;;0.98;;
1412;SDS011;701;52.526;13.408;2023-02-25T06:08:10;3.67;;;1.10;;
1412;SDS011;701;52.526;13.408;2023-02-25T06:10:37;3.78;;;1.20;;
1412;SDS011;701;52.526;13.408;2023-02-25T06:13:08;5.53;;;1.30;;
1412;SDS011;701;52.526;13.408;2023-02-25T06:15:38;4.53;;;1.40;;
1412;SDS011;701;52.526;13.408;2023-02-25T06:18:05;4.53;;;1.05;;
1412;SDS011;701;52.526;13.408;2023-02-25T06:20:31;4.20;;;0.90;;
1412;SDS011;701;52.526;13.408;2023-02-25T06:22:59;3.55;;;1.08;;
1412;SDS011;701;52.526;13.408;2023-02-25T06:25:25;5.32;;;1.33;;
1412;SDS011;701;52.526;13.408;2023-02-25T06:27:57;4.63;;;1.02;;
1412;SDS011;701;52.526;13.408;2023-02-25T06:30:24;4.47;;;1.33;;
1412;SDS011;701;52.526;13.408;2023-02-25T06:32:50;3.67;;;0.90;;
1412;SDS011;701;52.526;13.408;2023-02-25T06:35:16;7.97;;;1.08;;
1412;SDS011;701;52.526;13.408;2023-02-25T06:37:42;4.40;;;0.90;;
1412;SDS011;701;52.526;13.408;2023-02-25T06:40:09;5.30;;;1.07;;
1412;SDS011;701;52.526;13.408;2023-02-25T06:42:39;4.72;;;1.17;;
1412;SDS011;701;52.526;13.408;2023-02-25T06:45:05;3.70;;;1.20;;
1412;SDS011;701;52.526;13.408;2023-02-25T06:47:31;3.70;;;1.20;;
1412;SDS011;701;52.526;13.408;2023-02-25T06:49:56;3.67;;;0.90;;
1412;SDS011;701;52.526;13.408;2023-02-25T06:52:22;4.13;;;1.10;;
1412;SDS011;701;52.526;13.408;2023-02-25T06:54:49;3.83;;;1.20;;
1412;SDS011;701;52.526;13.408;2023-02-25T06:57:15;3.95;;;1.23;;
1412;SDS011;701;52.526;13.408;2023-02-25T06:59:41;3.97;;;1.20;;
1412;SDS011;701;52.526;13.408;2023-02-25T07:02:10;3.80;;;1.10;;
1412;SDS011;701;52.526;13.408;2023-02-25T07:04:37;3.85;;;1.10;;
1412;SDS011;701;52.526;13.408;2023-02-25T07:07:06;5.60;;;1.23;;
1412;SDS011;701;52.526;13.408;2023-02-25T07:09:32;5.50;;;1.30;;
1412;SDS011;701;52.526;13.408;2023-02-25T07:11:57;3.83;;;1.27;;
1412;SDS011;701;52.526;13.408;2023-02-25T07:14:23;4.10;;;1.10;;
1412;SDS011;701;52.526;13.408;2023-02-25T07:16:49;4.78;;;1.20;;
1412;SDS011;701;52.526;13.408;2023-02-25T07:19:16;3.65;;;1.10;;
1412;SDS011;701;52.526;13.408;2023-02-25T07:21:42;4.53;;;1.17;;
1412;SDS011;701;52.526;13.408;2023-02-25T07:24:09;4.13;;;1.38;;
1412;SDS011;701;52.526;13.408;2023-02-25T07:26:35;5.10;;;1.30;;
1412;SDS011;701;52.526;13.408;2023-02-25T07:29:02;3.60;;;1.23;;
1412;SDS011;701;52.526;13.408;2023-02-25T07:31:29;4.97;;;1.23;;
1412;SDS011;701;52.526;13.408;2023-02-25T07:33:56;4.40;;;1.30;;
1412;SDS011;701;52.526;13.408;2023-02-25T07:36:28;5.50;;;1.42;;
1412;SDS011;701;52.526;13.408;2023-02-25T07:41:33;5.10;;;1.25;;
1412;SDS011;701;52.526;13.408;2023-02-25T07:44:02;5.20;;;1.30;;
1412;SDS011;701;52.526;13.408;2023-02-25T07:46:29;4.53;;;1.42;;
1412;SDS011;701;52.526;13.408;2023-02-25T10:31:05;3.47;;;1.37;;
1412;SDS011;701;52.526;13.408;2023-02-25T10:33:36;3.65;;;1.10;;
1412;SDS011;701;52.526;13.408;2023-02-25T10:36:07;3.83;;;1.20;;
1412;SDS011;701;52.526;13.408;2023-02-25T10:38:37;3.45;;;1.00;;
1412;SDS011;701;52.526;13.408;2023-02-25T10:41:06;3.80;;;1.30;;
1412;SDS011;701;52.526;13.408;2023-02-25T10:43:32;5.07;;;1.33;;
1412;SDS011;701;52.526;13.408;2023-02-25T10:45:59;4.93;;;1.13;;
1412;SDS011;701;52.526;13.408;2023-02-25T10:48:27;3.97;;;1.08;;
1412;SDS011;701;52.526;13.408;2023-02-25T10:51:02;3.72;;;1.10;;
1412;SDS011;701;52.526;13.408;2023-02-25T10:53:37;3.90;;;1.07;;
1412;SDS011;701;52.526;13.408;2023-02-25T10:56:32;3.45;;;0.90;;
1412;SDS011;701;52.526;13.408;2023-02-25T11:01:52;3.53;;;0.90;;
1412;SDS011;701;52.526;13.408;2023-02-25T11:04:22;4.30;;;1.20;;
1412;SDS011;701;52.526;13.408;2023-02-25T11:07:01;14.70;;;6.33;;
1412;SDS011;701;52.526;13.408;2023-02-25T11:10:25;4.72;;;1.52;;
1412;SDS011;701;52.526;13.408;2023-02-25T11:12:52;6.35;;;1.77;;
1412;SDS011;701;52.526;13.408;2023-02-25T11:20:59;3.23;;;0.80;;
1412;SDS011;701;52.526;13.408;2023-02-25T11:23:35;3.17;;;0.90;;
1412;SDS011;701;52.526;13.408;2023-02-25T11:26:13;4.10;;;1.30;;
1412;SDS011;701;52.526;13.408;2023-02-25T11:28:54;3.15;;;0.90;;
1412;SDS011;701;52.526;13.408;2023-02-25T11:31:27;3.65;;;0.98;;
1412;SDS011;701;52.526;13.408;2023-02-25T11:34:12;3.80;;;0.80;;
1412;SDS011;701;52.526;13.408;2023-02-25T11:36:50;4.65;;;0.80;;
1412;SDS011;701;52.526;13.408;2023-02-25T11:41:50;3.80;;;0.90;;
1412;SDS011;701;52.526;13.408;2023-02-25T11:44:22;5.43;;;1.33;;
1412;SDS011;701;52.526;13.408;2023-02-25T11:53:28;3.53;;;1.20;;
1412;SDS011;701;52.526;13.408;2023-02-25T11:56:03;5.80;;;1.10;;
1412;SDS011;701;52.526;13.408;2023-02-25T12:13:00;4.47;;;1.10;;
1412;SDS011;701;52.526;13.408;2023-02-25T12:38:05;3.88;;;1.02;;
1412;SDS011;701;52.526;13.408;2023-02-25T12:46:07;4.32;;;1.30;;
1412;SDS011;701;52.526;13.408;2023-02-25T12:59:59;3.80;;;1.10;;
1412;SDS011;701;52.526;13.408;2023-02-25T13:08:40;4.10;;;1.10;;
1412;SDS011;701;52.526;13.408;2023-02-25T13:16:54;6.80;;;1.75;;
1412;SDS011;701;52.526;13.408;2023-02-25T13:27:26;6.22;;;1.60;;
1412;SDS011;701;52.526;13.408;2023-02-25T13:29:57;6.15;;;1.33;;
1412;SDS011;701;52.526;13.408;2023-02-25T13:35:36;4.78;;;1.40;;
1412;SDS011;701;52.526;13.408;2023-02-25T13:38:12;5.70;;;1.57;;
1412;SDS011;701;52.526;13.408;2023-02-25T13:46:51;5.00;;;1.40;;
1412;SDS011;701;52.526;13.408;2023-02-25T13:55:27;4.32;;;1.33;;
1412;SDS011;701;52.526;13.408;2023-02-25T13:58:13;6.28;;;1.48;;
1412;SDS011;701;52.526;13.408;2023-02-25T14:09:32;4.60;;;1.60;;
1412;SDS011;701;52.526;13.408;2023-02-25T14:12:09;4.32;;;1.40;;
1412;SDS011;701;52.526;13.408;2023-02-25T14:23:15;6.43;;;1.13;;
1412;SDS011;701;52.526;13.408;2023-02-25T14:25:55;4.47;;;1.35;;
1412;SDS011;701;52.526;13.408;2023-02-25T14:28:59;5.57;;;1.20;;
1412;SDS011;701;52.526;13.408;2023-02-25T14:34:43;4.80;;;1.10;;
1412;SDS011;701;52.526;13.408;2023-02-25T14:37:41;4.93;;;1.27;;
1412;SDS011;701;52.526;13.408;2023-02-25T14:45:39;4.53;;;1.42;;
1412;SDS011;701;52.526;13.408;2023-02-25T14:48:11;4.50;;;1.10;;
1412;SDS011;701;52.526;13.408;2023-02-25T14:50:50;5.00;;;1.00;;
1412;SDS011;701;52.526;13.408;2023-02-25T15:21:39;3.83;;;0.90;;
1412;SDS011;701;52.526;13.408;2023-02-25T15:24:09;3.70;;;1.10;;
1412;SDS011;701;52.526;13.408;2023-02-25T15:26:59;4.07;;;1.10;;
1412;SDS011;701;52.526;13.408;2023-02-25T15:32:10;4.38;;;1.10;;
1412;SDS011;701;52.526;13.408;2023-02-25T15:35:01;3.92;;;0.80;;
1412;SDS011;701;52.526;13.408;2023-02-25T15:37:31;4.32;;;0.82;;
1412;SDS011;701;52.526;13.408;2023-02-25T15:40:38;3.60;;;0.80;;
1412;SDS011;701;52.526;13.408;2023-02-25T15:42:55;3.30;;;0.90;;
1412;SDS011;701;52.526;13.408;2023-02-25T15:48:36;4.63;;;1.20;;
1412;SDS011;701;52.526;13.408;2023-02-25T15:55:48;3.93;;;0.90;;
1412;SDS011;701;52.526;13.408;2023-02-25T16:03:44;3.55;;;0.75;;
1412;SDS011;701;52.526;13.408;2023-02-25T16:11:18;3.47;;;1.00;;
1412;SDS011;701;52.526;13.408;2023-02-25T16:16:55;5.78;;;1.10;;
1412;SDS011;701;52.526;13.408;2023-02-25T16:19:41;5.23;;;1.40;;
1412;SDS011;701;52.526;13.408;2023-02-25T16:22:18;4.68;;;1.50;;
1412;SDS011;701;52.526;13.408;2023-02-25T16:24:50;6.75;;;1.63;;
1412;SDS011;701;52.526;13.408;2023-02-25T16:38:44;4.38;;;1.40;;
1412;SDS011;701;52.526;13.408;2023-02-25T16:41:15;4.72;;;1.20;;
1412;SDS011;701;52.526;13.408;2023-02-25T16:43:41;6.90;;;2.13;;
1412;SDS011;701;52.526;13.408;2023-02-25T16:46:09;5.33;;;1.33;;
1412;SDS011;701;52.526;13.408;2023-02-25T16:48:38;4.72;;;1.52;;
1412;SDS011;701;52.526;13.408;2023-02-25T16:51:10;6.03;;;1.60;;
1412;SDS011;701;52.526;13.408;2023-02-25T16:53:44;7.88;;;1.98;;
1412;SDS011;701;52.526;13.408;2023-02-25T16:56:13;3.88;;;1.20;;
1412;SDS011;701;52.526;13.408;2023-02-25T16:59:14;5.90;;;1.80;;
1412;SDS011;701;52.526;13.408;2023-02-25T17:01:45;4.07;;;1.30;;
1412;SDS011;701;52.526;13.408;2023-02-25T17:04:15;5.30;;;1.40;;
1412;SDS011;701;52.526;13.408;2023-02-25T17:06:44;38.72;;;23.55;;
1412;SDS011;701;52.526;13.408;2023-02-25T17:09:31;19.45;;;11.93;;
1412;SDS011;701;52.526;13.408;2023-02-25T17:11:57;4.70;;;1.30;;
1412;SDS011;701;52.526;13.408;2023-02-25T17:14:25;6.32;;;1.77;;
1412;SDS011;701;52.526;13.408;2023-02-25T17:16:51;4.78;;;1.65;;
1412;SDS011;701;52.526;13.408;2023-02-25T17:19:17;3.60;;;1.13;;
1412;SDS011;701;52.526;13.408;2023-02-25T17:21:50;4.07;;;1.03;;
1412;SDS011;701;52.526;13.408;2023-02-25T17:24:19;5.13;;;1.40;;
1412;SDS011;701;52.526;13.408;2023-02-25T17:26:51;5.65;;;1.35;;
1412;SDS011;701;52.526;13.408;2023-02-25T17:29:17;7.97;;;1.40;;
1412;SDS011;701;52.526;13.408;2023-02-25T17:31:45;6.32;;;1.35;;
1412;SDS011;701;52.526;13.408;2023-02-25T17:34:33;4.20;;;1.37;;
1412;SDS011;701;52.526;13.408;2023-02-25T17:37:01;4.63;;;1.25;;
1412;SDS011;701;52.526;13.408;2023-02-25T17:39:29;4.70;;;1.30;;
1412;SDS011;701;52.526;13.408;2023-02-25T17:41:55;5.15;;;1.42;;
1412;SDS011;701;52.526;13.408;2023-02-25T17:47:12;6.03;;;1.43;;
1412;SDS011;701;52.526;13.408;2023-02-25T17:49:45;6.65;;;2.00;;
1412;SDS011;701;52.526;13.408;2023-02-25T17:57:25;5.53;;;1.30;;
1412;SDS011;701;52.526;13.408;2023-02-25T18:00:18;5.63;;;1.87;;
1412;SDS011;701;52.526;13.408;2023-02-25T18:03:05;5.03;;;1.70;;
1412;SDS011;701;52.526;13.408;2023-02-25T18:05:47;5.53;;;1.50;;
1412;SDS011;701;52.526;13.408;2023-02-25T18:08:24;5.88;;;1.77;;
1412;SDS011;701;52.526;13.408;2023-02-25T18:11:28;6.65;;;1.95;;
1412;SDS011;701;52.526;13.408;2023-02-25T18:14:22;9.37;;;2.00;;
1412;SDS011;701;52.526;13.408;2023-02-25T18:16:58;5.45;;;1.88;;
1412;SDS011;701;52.526;13.408;2023-02-25T18:21:56;7.28;;;2.63;;
1412;SDS011;701;52.526;13.408;2023-02-25T18:24:23;7.15;;;2.28;;
1412;SDS011;701;52.526;13.408;2023-02-25T18:27:05;7.33;;;2.17;;
1412;SDS011;701;52.526;13.408;2023-02-25T18:29:43;7.65;;;2.45;;
1412;SDS011;701;52.526;13.408;2023-02-25T18:32:08;6.13;;;2.22;;
1412;SDS011;701;52.526;13.408;2023-02-25T18:34:34;8.60;;;2.50;;
1412;SDS011;701;52.526;13.408;2023-02-25T18:37:00;5.70;;;2.28;;
1412;SDS011;701;52.526;13.408;2023-02-25T18:39:26;6.73;;;2.37;;
1412;SDS011;701;52.526;13.408;2023-02-25T18:41:53;7.03;;;2.80;;
1412;SDS011;701;52.526;13.408;2023-02-25T18:44:19;7.20;;;2.83;;
1412;SDS011;701;52.526;13.408;2023-02-25T18:46:44;6.97;;;2.70;;
1412;SDS011;701;52.526;13.408;2023-02-25T18:49:10;7.55;;;2.75;;
1412;SDS011;701;52.526;13.408;2023-02-25T18:51:36;10.43;;;2.70;;
1412;SDS011;701;52.526;13.408;2023-02-25T18:54:03;11.43;;;2.92;;
1412;SDS011;701;52.526;13.408;2023-02-25T18:56:29;8.05;;;2.92;;
1412;SDS011;701;52.526;13.408;2023-02-25T18:58:55;8.98;;;3.08;;
1412;SDS011;701;52.526;13.408;2023-02-25T19:01:22;11.43;;;2.97;;
1412;SDS011;701;52.526;13.408;2023-02-25T19:03:52;7.88;;;3.10;;
1412;SDS011;701;52.526;13.408;2023-02-25T19:06:23;8.60;;;2.72;;
1412;SDS011;701;52.526;13.408;2023-02-25T19:08:49;8.25;;;2.80;;
1412;SDS011;701;52.526;13.408;2023-02-25T19:11:17;10.03;;;2.73;;
1412;SDS011;701;52.526;13.408;2023-02-25T19:13:45;6.72;;;2.47;;
1412;SDS011;701;52.526;13.408;2023-02-25T19:16:11;7.80;;;2.47;;
1412;SDS011;701;52.526;13.408;2023-02-25T19:18:36;9.48;;;2.40;;
1412;SDS011;701;52.526;13.408;2023-02-25T19:21:04;9.80;;;2.63;;
1412;SDS011;701;52.526;13.408;2023-02-25T19:23:35;7.73;;;2.37;;
1412;SDS011;701;52.526;13.408;2023-02-25T19:26:01;6.32;;;2.40;;
1412;SDS011;701;52.526;13.408;2023-02-25T19:28:28;8.32;;;2.67;;
1412;SDS011;701;52.526;13.408;2023-02-25T19:30:54;8.83;;;2.77;;
1412;SDS011;701;52.526;13.408;2023-02-25T19:33:20;8.02;;;2.58;;
1412;SDS011;701;52.526;13.408;2023-02-25T19:35:45;6.93;;;2.70;;
1412;SDS011;701;52.526;13.408;2023-02-25T19:38:18;6.70;;;2.30;;
1412;SDS011;701;52.526;13.408;2023-02-25T19:40:45;8.02;;;2.20;;
1412;SDS011;701;52.526;13.408;2023-02-25T19:43:12;9.57;;;2.73;;
1412;SDS011;701;52.526;13.408;2023-02-25T19:45:38;9.07;;;2.30;;
1412;SDS011;701;52.526;13.408;2023-02-25T19:48:05;5.72;;;2.50;;
1412;SDS011;701;52.526;13.408;2023-02-25T19:50:31;9.30;;;2.35;;
1412;SDS011;701;52.526;13.408;2023-02-25T19:52:59;10.45;;;1.92;;
1412;SDS011;701;52.526;13.408;2023-02-25T19:55:26;6.60;;;2.50;;
1412;SDS011;701;52.526;13.408;2023-02-25T19:57:52;6.32;;;2.05;;
1412;SDS011;701;52.526;13.408;2023-02-25T20:00:22;7.10;;;2.42;;
1412;SDS011;701;52.526;13.408;2023-02-25T20:02:49;7.20;;;2.13;;
1412;SDS011;701;52.526;13.408;2023-02-25T20:05:17;7.43;;;2.07;;
1412;SDS011;701;52.526;13.408;2023-02-25T20:07:44;4.93;;;1.90;;
1412;SDS011;701;52.526;13.408;2023-02-25T20:10:10;7.30;;;2.13;;
1412;SDS011;701;52.526;13.408;2023-02-25T20:12:41;10.02;;;2.50;;
1412;SDS011;701;52.526;13.408;2023-02-25T20:15:08;9.48;;;2.30;;
1412;SDS011;701;52.526;13.408;2023-02-25T20:17:35;8.90;;;2.20;;
1412;SDS011;701;52.526;13.408;2023-02-25T20:20:02;7.82;;;2.67;;
1412;SDS011;701;52.526;13.408;2023-02-25T20:22:29;7.20;;;1.98;;
1412;SDS011;701;52.526;13.408;2023-02-25T20:24:55;6.88;;;1.92;;
1412;SDS011;701;52.526;13.408;2023-02-25T20:27:21;7.40;;;2.37;;
1412;SDS011;701;52.526;13.408;2023-02-25T20:29:50;6.93;;;1.85;;
1412;SDS011;701;52.526;13.408;2023-02-25T20:32:16;7.47;;;1.85;;
1412;SDS011;701;52.526;13.408;2023-02-25T20:34:42;6.47;;;1.80;;
1412;SDS011;701;52.526;13.408;2023-02-25T20:37:16;7.22;;;2.10;;
1412;SDS011;701;52.526;13.408;2023-02-25T20:42:20;5.30;;;1.53;;
1412;SDS011;701;52.526;13.408;2023-02-25T20:44:51;4.95;;;1.77;;
1412;SDS011;701;52.526;13.408;2023-02-25T20:47:19;7.60;;;2.58;;
1412;SDS011;701;52.526;13.408;2023-02-25T20:49:56;4.97;;;1.95;;
1412;SDS011;701;52.526;13.408;2023-02-25T20:52:22;9.45;;;2.70;;
1412;SDS011;701;52.526;13.408;2023-02-25T20:54:51;8.67;;;2.53;;
1412;SDS011;701;52.526;13.408;2023-02-25T20:57:19;6.25;;;2.17;;
1412;SDS011;701;52.526;13.408;2023-02-25T20:59:46;5.55;;;2.17;;
1412;SDS011;701;52.526;13.408;2023-02-25T21:02:12;7.63;;;2.17;;
1412;SDS011;701;52.526;13.408;2023-02-25T21:04:39;9.25;;;2.70;;
1412;SDS011;701;52.526;13.408;2023-02-25T21:07:05;6.40;;;2.13;;
1412;SDS011;701;52.526;13.408;2023-02-25T21:09:31;9.30;;;2.53;;
1412;SDS011;701;52.526;13.408;2023-02-25T21:11:57;10.32;;;2.00;;
1412;SDS011;701;52.526;13.408;2023-02-25T21:14:23;7.03;;;1.90;;
1412;SDS011;701;52.526;13.408;2023-02-25T21:16:49;5.93;;;2.03;;
1412;SDS011;701;52.526;13.408;2023-02-25T21:19:21;6.80;;;2.25;;
1412;SDS011;701;52.526;13.408;2023-02-25T21:21:49;6.00;;;1.93;;
1412;SDS011;701;52.526;13.408;2023-02-25T21:24:16;9.10;;;1.95;;
1412;SDS011;701;52.526;13.408;2023-02-25T21:26:42;5.60;;;2.15;;
1412;SDS011;701;52.526;13.408;2023-02-25T21:29:09;7.82;;;2.10;;
1412;SDS011;701;52.526;13.408;2023-02-25T21:31:35;7.28;;;2.10;;
1412;SDS011;701;52.526;13.408;2023-02-25T21:34:02;7.30;;;2.07;;
1412;SDS011;701;52.526;13.408;2023-02-25T21:36:28;6.85;;;2.13;;
1412;SDS011;701;52.526;13.408;2023-02-25T21:38:54;9.30;;;2.08;;
1412;SDS011;701;52.526;13.408;2023-02-25T21:41:20;10.43;;;2.67;;
1412;SDS011;701;52.526;13.408;2023-02-25T21:43:46;8.73;;;1.90;;
1412;SDS011;701;52.526;13.408;2023-02-25T21:46:12;5.05;;;2.08;;
1412;SDS011;701;52.526;13.408;2023-02-25T21:48:40;6.07;;;2.00;;
1412;SDS011;701;52.526;13.408;2023-02-25T21:51:11;6.80;;;1.88;;
1412;SDS011;701;52.526;13.408;2023-02-25T21:53:40;6.25;;;1.85;;
1412;SDS011;701;52.526;13.408;2023-02-25T21:56:13;10.80;;;3.45;;
1412;SDS011;701;52.526;13.408;2023-02-25T21:58:40;6.05;;;1.90;;
1412;SDS011;701;52.526;13.408;2023-02-25T22:01:22;7.78;;;2.40;;
1412;SDS011;701;52.526;13.408;2023-02-25T22:03:50;7.22;;;1.67;;
1412;SDS011;701;52.526;13.408;2023-02-25T22:06:16;5.07;;;1.60;;
1412;SDS011;701;52.526;13.408;2023-02-25T22:08:42;6.50;;;2.00;;
1412;SDS011;701;52.526;13.408;2023-02-25T22:11:17;6.72;;;2.03;;
1412;SDS011;701;52.526;13.408;2023-02-25T22:13:47;8.32;;;1.88;;